sensor_id;sensor_type;location;lat;lon;timestamp;P1;durP1;ratioP1;P2;durP2;ratioP2
763;SDS011;5393;48.728;9.140;2022-09-12T00:00:05;8.20;;;7.50;;
763;SDS011;5393;48.728;9.140;2022-09-12T00:02:51;9.20;;;8.30;;
763;SDS011;5393;48.728;9.140;2022-09-12T00:05:39;9.40;;;8.50;;
763;SDS011;5393;48.728;9.140;2022-09-12T00:08:24;8.13;;;7.40;;
763;SDS011;5393;48.728;9.140;2022-09-12T00:11:09;8.53;;;7.73;;
763;SDS011;5393;48.728;9.140;2022-09-12T00:13:55;8.77;;;7.87;;
763;SDS011;5393;48.728;9.140;2022-09-12T00:16:40;7.53;;;6.83;;
763;SDS011;5393;48.728;9.140;2022-09-12T00:19:29;8.57;;;7.77;;
763;SDS011;5393;48.728;9.140;2022-09-12T00:22:14;8.43;;;7.73;;
763;SDS011;5393;48.728;9.140;2022-09-12T00:24:58;8.40;;;7.70;;
763;SDS011;5393;48.728;9.140;2022-09-12T00:27:43;9.07;;;8.10;;
763;SDS011;5393;48.728;9.140;2022-09-12T00:30:27;8.77;;;7.87;;
763;SDS011;5393;48.728;9.140;2022-09-12T00:33:13;8.30;;;7.27;;
763;SDS011;5393;48.728;9.140;2022-09-12T00:35:58;9.23;;;8.33;;
763;SDS011;5393;48.728;9.140;2022-09-12T00:38:42;8.53;;;7.73;;
763;SDS011;5393;48.728;9.140;2022-09-12T00:41:35;9.53;;;8.63;;
763;SDS011;5393;48.728;9.140;2022-09-12T00:50:09;10.30;;;8.53;;
763;SDS011;5393;48.728;9.140;2022-09-12T00:53:02;9.20;;;8.40;;
763;SDS011;5393;48.728;9.140;2022-09-12T00:55:48;9.07;;;8.13;;
763;SDS011;5393;48.728;9.140;2022-09-12T00:58:35;8.63;;;7.93;;
763;SDS011;5393;48.728;9.140;2022-09-12T01:01:22;9.13;;;8.30;;
763;SDS011;5393;48.728;9.140;2022-09-12T01:04:08;9.20;;;8.30;;
763;SDS011;5393;48.728;9.140;2022-09-12T01:06:53;8.77;;;7.90;;
763;SDS011;5393;48.728;9.140;2022-09-12T01:09:39;10.90;;;9.83;;
763;SDS011;5393;48.728;9.140;2022-09-12T01:12:25;9.50;;;8.60;;
763;SDS011;5393;48.728;9.140;2022-09-12T01:15:10;9.67;;;8.73;;
763;SDS011;5393;48.728;9.140;2022-09-12T01:20:45;9.73;;;8.40;;
763;SDS011;5393;48.728;9.140;2022-09-12T01:26:56;8.57;;;7.67;;
763;SDS011;5393;48.728;9.140;2022-09-12T01:30:02;8.87;;;8.00;;
763;SDS011;5393;48.728;9.140;2022-09-12T01:32:54;8.50;;;7.60;;
763;SDS011;5393;48.728;9.140;2022-09-12T01:36:06;8.20;;;7.50;;
763;SDS011;5393;48.728;9.140;2022-09-12T01:38:46;8.70;;;7.90;;
763;SDS011;5393;48.728;9.140;2022-09-12T01:41:54;8.07;;;7.27;;
763;SDS011;5393;48.728;9.140;2022-09-12T01:50:20;7.90;;;7.20;;
763;SDS011;5393;48.728;9.140;2022-09-12T01:53:19;8.23;;;7.43;;
763;SDS011;5393;48.728;9.140;2022-09-12T01:56:07;9.70;;;8.80;;
763;SDS011;5393;48.728;9.140;2022-09-12T01:59:03;9.40;;;8.50;;
763;SDS011;5393;48.728;9.140;2022-09-12T02:01:57;9.33;;;8.47;;
763;SDS011;5393;48.728;9.140;2022-09-12T02:04:48;11.27;;;10.17;;
763;SDS011;5393;48.728;9.140;2022-09-12T02:10:20;11.00;;;10.00;;
763;SDS011;5393;48.728;9.140;2022-09-12T02:13:08;10.47;;;9.10;;
763;SDS011;5393;48.728;9.140;2022-09-12T02:15:57;9.43;;;8.63;;
763;SDS011;5393;48.728;9.140;2022-09-12T02:18:47;10.40;;;9.40;;
763;SDS011;5393;48.728;9.140;2022-09-12T02:21:34;11.17;;;10.17;;
763;SDS011;5393;48.728;9.140;2022-09-12T02:24:24;11.03;;;9.90;;
763;SDS011;5393;48.728;9.140;2022-09-12T02:27:14;11.10;;;10.00;;
763;SDS011;5393;48.728;9.140;2022-09-12T02:30:00;10.50;;;9.50;;
763;SDS011;5393;48.728;9.140;2022-09-12T02:35:31;10.43;;;9.43;;
763;SDS011;5393;48.728;9.140;2022-09-12T02:41:21;10.97;;;9.97;;
763;SDS011;5393;48.728;9.140;2022-09-12T02:44:06;10.20;;;9.20;;
763;SDS011;5393;48.728;9.140;2022-09-12T02:46:52;10.00;;;9.10;;
763;SDS011;5393;48.728;9.140;2022-09-12T02:49:37;9.80;;;8.90;;
763;SDS011;5393;48.728;9.140;2022-09-12T02:52:22;9.90;;;8.80;;
763;SDS011;5393;48.728;9.140;2022-09-12T02:55:06;10.33;;;9.40;;
763;SDS011;5393;48.728;9.140;2022-09-12T02:57:54;9.27;;;8.37;;
763;SDS011;5393;48.728;9.140;2022-09-12T03:00:43;11.10;;;9.40;;
763;SDS011;5393;48.728;9.140;2022-09-12T03:06:35;9.97;;;8.93;;
763;SDS011;5393;48.728;9.140;2022-09-12T03:09:44;11.77;;;10.50;;
763;SDS011;5393;48.728;9.140;2022-09-12T03:21:12;10.87;;;9.87;;
763;SDS011;5393;48.728;9.140;2022-09-12T03:24:32;11.27;;;10.27;;
763;SDS011;5393;48.728;9.140;2022-09-12T03:27:11;9.23;;;8.43;;
763;SDS011;5393;48.728;9.140;2022-09-12T03:29:57;12.00;;;10.90;;
763;SDS011;5393;48.728;9.140;2022-09-12T03:35:27;11.90;;;9.57;;
763;SDS011;5393;48.728;9.140;2022-09-12T03:38:12;10.20;;;9.30;;
763;SDS011;5393;48.728;9.140;2022-09-12T03:40:56;12.50;;;11.33;;
763;SDS011;5393;48.728;9.140;2022-09-12T03:43:41;9.87;;;8.97;;
763;SDS011;5393;48.728;9.140;2022-09-12T03:46:25;10.43;;;9.33;;
763;SDS011;5393;48.728;9.140;2022-09-12T03:49:10;10.57;;;9.53;;
763;SDS011;5393;48.728;9.140;2022-09-12T03:51:54;10.10;;;9.10;;
763;SDS011;5393;48.728;9.140;2022-09-12T03:54:39;10.57;;;9.57;;
763;SDS011;5393;48.728;9.140;2022-09-12T03:57:23;9.53;;;8.53;;
763;SDS011;5393;48.728;9.140;2022-09-12T04:00:08;8.50;;;7.70;;
763;SDS011;5393;48.728;9.140;2022-09-12T04:02:56;9.40;;;8.30;;
763;SDS011;5393;48.728;9.140;2022-09-12T04:05:41;8.43;;;7.47;;
763;SDS011;5393;48.728;9.140;2022-09-12T04:08:25;8.60;;;7.77;;
763;SDS011;5393;48.728;9.140;2022-09-12T04:11:13;9.23;;;8.23;;
763;SDS011;5393;48.728;9.140;2022-09-12T04:13:58;8.93;;;7.87;;
763;SDS011;5393;48.728;9.140;2022-09-12T04:16:42;7.70;;;7.00;;
763;SDS011;5393;48.728;9.140;2022-09-12T04:19:27;8.63;;;7.83;;
763;SDS011;5393;48.728;9.140;2022-09-12T04:22:12;8.83;;;7.97;;
763;SDS011;5393;48.728;9.140;2022-09-12T04:24:56;8.60;;;7.80;;
763;SDS011;5393;48.728;9.140;2022-09-12T04:27:41;9.00;;;8.10;;
763;SDS011;5393;48.728;9.140;2022-09-12T04:30:25;9.37;;;8.43;;
763;SDS011;5393;48.728;9.140;2022-09-12T04:33:10;8.90;;;8.00;;
763;SDS011;5393;48.728;9.140;2022-09-12T04:35:55;8.33;;;7.63;;
763;SDS011;5393;48.728;9.140;2022-09-12T04:38:39;9.23;;;8.37;;
763;SDS011;5393;48.728;9.140;2022-09-12T04:41:25;9.00;;;8.10;;
763;SDS011;5393;48.728;9.140;2022-09-12T04:44:11;8.60;;;7.80;;
763;SDS011;5393;48.728;9.140;2022-09-12T04:46:56;8.10;;;7.30;;
763;SDS011;5393;48.728;9.140;2022-09-12T04:49:41;8.30;;;7.50;;
763;SDS011;5393;48.728;9.140;2022-09-12T04:52:25;8.47;;;7.67;;
763;SDS011;5393;48.728;9.140;2022-09-12T04:55:10;8.17;;;7.37;;
763;SDS011;5393;48.728;9.140;2022-09-12T04:57:54;8.10;;;7.30;;
763;SDS011;5393;48.728;9.140;2022-09-12T05:00:39;8.40;;;7.60;;
763;SDS011;5393;48.728;9.140;2022-09-12T05:03:24;7.63;;;6.93;;
763;SDS011;5393;48.728;9.140;2022-09-12T05:06:09;8.30;;;7.50;;
763;SDS011;5393;48.728;9.140;2022-09-12T05:08:55;8.93;;;8.03;;
763;SDS011;5393;48.728;9.140;2022-09-12T05:11:42;8.97;;;8.07;;
763;SDS011;5393;48.728;9.140;2022-09-12T05:14:27;9.27;;;8.37;;
763;SDS011;5393;48.728;9.140;2022-09-12T05:17:12;8.67;;;7.80;;
763;SDS011;5393;48.728;9.140;2022-09-12T05:19:57;8.80;;;7.90;;
763;SDS011;5393;48.728;9.140;2022-09-12T05:22:42;8.57;;;7.77;;
763;SDS011;5393;48.728;9.140;2022-09-12T05:25:27;9.57;;;8.57;;
763;SDS011;5393;48.728;9.140;2022-09-12T05:28:11;11.57;;;10.43;;
763;SDS011;5393;48.728;9.140;2022-09-12T05:31:00;10.40;;;9.40;;
763;SDS011;5393;48.728;9.140;2022-09-12T05:33:46;9.50;;;8.13;;
763;SDS011;5393;48.728;9.140;2022-09-12T05:36:31;9.07;;;7.73;;
763;SDS011;5393;48.728;9.140;2022-09-12T05:39:16;8.60;;;7.80;;
763;SDS011;5393;48.728;9.140;2022-09-12T05:42:01;9.13;;;8.33;;
763;SDS011;5393;48.728;9.140;2022-09-12T05:44:45;8.77;;;7.83;;
763;SDS011;5393;48.728;9.140;2022-09-12T05:47:30;9.70;;;7.97;;
763;SDS011;5393;48.728;9.140;2022-09-12T05:50:15;8.70;;;7.90;;
763;SDS011;5393;48.728;9.140;2022-09-12T05:52:59;10.10;;;9.07;;
763;SDS011;5393;48.728;9.140;2022-09-12T05:55:45;8.80;;;7.90;;
763;SDS011;5393;48.728;9.140;2022-09-12T05:58:29;9.40;;;8.50;;
763;SDS011;5393;48.728;9.140;2022-09-12T06:01:14;9.30;;;8.40;;
763;SDS011;5393;48.728;9.140;2022-09-12T06:04:00;9.43;;;8.53;;
763;SDS011;5393;48.728;9.140;2022-09-12T06:06:45;9.87;;;8.97;;
763;SDS011;5393;48.728;9.140;2022-09-12T06:09:31;10.37;;;8.50;;
763;SDS011;5393;48.728;9.140;2022-09-12T06:12:16;11.23;;;9.97;;
763;SDS011;5393;48.728;9.140;2022-09-12T06:15:00;12.10;;;10.80;;
763;SDS011;5393;48.728;9.140;2022-09-12T06:17:47;11.60;;;9.70;;
763;SDS011;5393;48.728;9.140;2022-09-12T06:20:31;11.03;;;9.93;;
763;SDS011;5393;48.728;9.140;2022-09-12T06:23:16;13.67;;;11.00;;
763;SDS011;5393;48.728;9.140;2022-09-12T06:26:01;14.00;;;10.10;;
763;SDS011;5393;48.728;9.140;2022-09-12T06:28:47;11.77;;;9.60;;
763;SDS011;5393;48.728;9.140;2022-09-12T06:31:33;15.33;;;11.60;;
763;SDS011;5393;48.728;9.140;2022-09-12T06:34:18;11.17;;;10.17;;
763;SDS011;5393;48.728;9.140;2022-09-12T06:37:03;11.70;;;9.93;;
763;SDS011;5393;48.728;9.140;2022-09-12T06:39:47;13.67;;;12.00;;
763;SDS011;5393;48.728;9.140;2022-09-12T06:42:32;15.33;;;12.77;;
763;SDS011;5393;48.728;9.140;2022-09-12T06:45:17;16.07;;;11.47;;
763;SDS011;5393;48.728;9.140;2022-09-12T06:48:02;13.23;;;11.17;;
763;SDS011;5393;48.728;9.140;2022-09-12T06:50:57;11.97;;;10.77;;
763;SDS011;5393;48.728;9.140;2022-09-12T06:53:43;10.43;;;9.47;;
763;SDS011;5393;48.728;9.140;2022-09-12T06:56:28;11.07;;;9.97;;
763;SDS011;5393;48.728;9.140;2022-09-12T06:59:13;11.97;;;10.77;;
763;SDS011;5393;48.728;9.140;2022-09-12T07:01:57;10.80;;;9.60;;
763;SDS011;5393;48.728;9.140;2022-09-12T07:04:42;11.20;;;10.10;;
763;SDS011;5393;48.728;9.140;2022-09-12T07:07:26;10.83;;;9.73;;
763;SDS011;5393;48.728;9.140;2022-09-12T07:10:12;10.27;;;9.00;;
763;SDS011;5393;48.728;9.140;2022-09-12T07:12:57;10.03;;;9.03;;
763;SDS011;5393;48.728;9.140;2022-09-12T07:15:42;8.57;;;7.63;;
763;SDS011;5393;48.728;9.140;2022-09-12T07:18:26;10.20;;;8.27;;
763;SDS011;5393;48.728;9.140;2022-09-12T07:21:13;9.27;;;7.83;;
763;SDS011;5393;48.728;9.140;2022-09-12T07:23:58;7.17;;;6.47;;
763;SDS011;5393;48.728;9.140;2022-09-12T07:26:43;7.57;;;6.87;;
763;SDS011;5393;48.728;9.140;2022-09-12T07:29:27;6.97;;;6.37;;
763;SDS011;5393;48.728;9.140;2022-09-12T07:32:12;6.73;;;5.73;;
763;SDS011;5393;48.728;9.140;2022-09-12T07:34:58;7.77;;;6.87;;
763;SDS011;5393;48.728;9.140;2022-09-12T07:37:43;7.50;;;6.33;;
763;SDS011;5393;48.728;9.140;2022-09-12T07:40:28;6.20;;;5.60;;
763;SDS011;5393;48.728;9.140;2022-09-12T07:43:13;5.80;;;5.30;;
763;SDS011;5393;48.728;9.140;2022-09-12T07:45:57;6.30;;;5.70;;
763;SDS011;5393;48.728;9.140;2022-09-12T07:48:42;6.93;;;4.70;;
763;SDS011;5393;48.728;9.140;2022-09-12T07:51:28;5.33;;;4.87;;
763;SDS011;5393;48.728;9.140;2022-09-12T07:54:14;4.87;;;4.47;;
763;SDS011;5393;48.728;9.140;2022-09-12T07:56:58;4.73;;;4.27;;
763;SDS011;5393;48.728;9.140;2022-09-12T07:59:43;5.07;;;4.57;;
763;SDS011;5393;48.728;9.140;2022-09-12T08:02:28;6.73;;;4.90;;
763;SDS011;5393;48.728;9.140;2022-09-12T08:05:12;5.57;;;4.43;;
763;SDS011;5393;48.728;9.140;2022-09-12T08:07:57;4.53;;;4.13;;
763;SDS011;5393;48.728;9.140;2022-09-12T08:10:42;4.80;;;4.40;;
763;SDS011;5393;48.728;9.140;2022-09-12T08:13:27;4.40;;;4.00;;
763;SDS011;5393;48.728;9.140;2022-09-12T08:16:12;5.17;;;4.10;;
763;SDS011;5393;48.728;9.140;2022-09-12T08:19:01;4.57;;;4.17;;
763;SDS011;5393;48.728;9.140;2022-09-12T08:21:47;4.50;;;3.93;;
763;SDS011;5393;48.728;9.140;2022-09-12T08:24:32;4.33;;;3.93;;
763;SDS011;5393;48.728;9.140;2022-09-12T08:27:16;4.30;;;3.90;;
763;SDS011;5393;48.728;9.140;2022-09-12T08:30:01;4.80;;;4.30;;
763;SDS011;5393;48.728;9.140;2022-09-12T08:32:45;4.50;;;4.10;;
763;SDS011;5393;48.728;9.140;2022-09-12T08:35:30;4.50;;;4.10;;
763;SDS011;5393;48.728;9.140;2022-09-12T08:38:15;4.27;;;3.87;;
763;SDS011;5393;48.728;9.140;2022-09-12T08:41:03;4.77;;;3.60;;
763;SDS011;5393;48.728;9.140;2022-09-12T08:46:48;4.20;;;3.80;;
763;SDS011;5393;48.728;9.140;2022-09-12T08:55:42;4.43;;;3.57;;
763;SDS011;5393;48.728;9.140;2022-09-12T08:58:27;5.63;;;4.17;;
763;SDS011;5393;48.728;9.140;2022-09-12T09:10:07;3.77;;;3.47;;
763;SDS011;5393;48.728;9.140;2022-09-12T09:13:00;4.60;;;3.50;;
763;SDS011;5393;48.728;9.140;2022-09-12T09:15:56;3.23;;;2.93;;
763;SDS011;5393;48.728;9.140;2022-09-12T09:18:43;3.37;;;2.90;;
763;SDS011;5393;48.728;9.140;2022-09-12T09:21:33;3.40;;;3.10;;
763;SDS011;5393;48.728;9.140;2022-09-12T09:24:22;3.90;;;2.90;;
763;SDS011;5393;48.728;9.140;2022-09-12T09:27:09;4.50;;;3.00;;
763;SDS011;5393;48.728;9.140;2022-09-12T09:29:56;4.07;;;2.87;;
763;SDS011;5393;48.728;9.140;2022-09-12T09:32:42;3.07;;;2.73;;
763;SDS011;5393;48.728;9.140;2022-09-12T09:44:45;2.97;;;2.67;;
763;SDS011;5393;48.728;9.140;2022-09-12T09:47:30;3.20;;;2.90;;
763;SDS011;5393;48.728;9.140;2022-09-12T09:50:15;2.67;;;2.30;;
763;SDS011;5393;48.728;9.140;2022-09-12T09:53:00;3.43;;;2.60;;
763;SDS011;5393;48.728;9.140;2022-09-12T09:55:46;3.63;;;2.50;;
763;SDS011;5393;48.728;9.140;2022-09-12T09:58:34;2.87;;;2.40;;
763;SDS011;5393;48.728;9.140;2022-09-12T10:01:19;2.60;;;1.90;;
763;SDS011;5393;48.728;9.140;2022-09-12T10:04:04;2.40;;;2.00;;
763;SDS011;5393;48.728;9.140;2022-09-12T10:06:59;2.00;;;1.80;;
763;SDS011;5393;48.728;9.140;2022-09-12T10:10:02;3.53;;;2.50;;
763;SDS011;5393;48.728;9.140;2022-09-12T10:12:47;3.40;;;2.60;;
763;SDS011;5393;48.728;9.140;2022-09-12T10:15:33;2.33;;;2.03;;
763;SDS011;5393;48.728;9.140;2022-09-12T10:18:31;2.50;;;2.13;;
763;SDS011;5393;48.728;9.140;2022-09-12T10:21:21;3.80;;;1.93;;
763;SDS011;5393;48.728;9.140;2022-09-12T10:24:18;4.07;;;2.30;;
763;SDS011;5393;48.728;9.140;2022-09-12T10:27:13;2.57;;;2.03;;
763;SDS011;5393;48.728;9.140;2022-09-12T10:32:44;2.50;;;1.80;;
763;SDS011;5393;48.728;9.140;2022-09-12T10:35:30;2.37;;;1.83;;
763;SDS011;5393;48.728;9.140;2022-09-12T10:41:07;2.23;;;1.87;;
763;SDS011;5393;48.728;9.140;2022-09-12T10:43:53;2.30;;;1.90;;
763;SDS011;5393;48.728;9.140;2022-09-12T10:46:49;2.50;;;2.30;;
763;SDS011;5393;48.728;9.140;2022-09-12T10:49:34;2.00;;;1.80;;
763;SDS011;5393;48.728;9.140;2022-09-12T10:52:23;3.90;;;1.60;;
763;SDS011;5393;48.728;9.140;2022-09-12T10:55:18;2.67;;;1.67;;
763;SDS011;5393;48.728;9.140;2022-09-12T11:00:57;1.63;;;1.53;;
763;SDS011;5393;48.728;9.140;2022-09-12T11:03:49;4.67;;;1.73;;
763;SDS011;5393;48.728;9.140;2022-09-12T11:06:44;2.07;;;1.87;;
763;SDS011;5393;48.728;9.140;2022-09-12T11:12:18;3.27;;;1.90;;
763;SDS011;5393;48.728;9.140;2022-09-12T11:26:49;2.33;;;1.60;;
763;SDS011;5393;48.728;9.140;2022-09-12T11:41:08;1.53;;;1.27;;
763;SDS011;5393;48.728;9.140;2022-09-12T11:46:46;2.00;;;1.30;;
763;SDS011;5393;48.728;9.140;2022-09-12T11:49:32;2.90;;;1.57;;
763;SDS011;5393;48.728;9.140;2022-09-12T11:52:19;2.00;;;1.30;;
763;SDS011;5393;48.728;9.140;2022-09-12T11:55:10;1.80;;;1.47;;
763;SDS011;5393;48.728;9.140;2022-09-12T11:58:00;3.20;;;1.47;;
763;SDS011;5393;48.728;9.140;2022-09-12T12:00:49;3.83;;;1.40;;
763;SDS011;5393;48.728;9.140;2022-09-12T12:03:43;2.00;;;1.30;;
763;SDS011;5393;48.728;9.140;2022-09-12T12:06:32;3.20;;;1.37;;
763;SDS011;5393;48.728;9.140;2022-09-12T12:09:20;2.30;;;1.27;;
763;SDS011;5393;48.728;9.140;2022-09-12T12:12:06;1.70;;;1.20;;
763;SDS011;5393;48.728;9.140;2022-09-12T12:14:52;1.63;;;1.23;;
763;SDS011;5393;48.728;9.140;2022-09-12T12:17:37;2.00;;;1.40;;
763;SDS011;5393;48.728;9.140;2022-09-12T12:20:22;2.90;;;1.70;;
763;SDS011;5393;48.728;9.140;2022-09-12T12:23:19;2.13;;;1.27;;
763;SDS011;5393;48.728;9.140;2022-09-12T12:26:09;1.80;;;1.30;;
763;SDS011;5393;48.728;9.140;2022-09-12T12:34:45;1.47;;;1.10;;
763;SDS011;5393;48.728;9.140;2022-09-12T12:40:20;5.00;;;2.20;;
763;SDS011;5393;48.728;9.140;2022-09-12T12:43:13;3.40;;;1.90;;
763;SDS011;5393;48.728;9.140;2022-09-12T12:46:13;6.23;;;3.13;;
763;SDS011;5393;48.728;9.140;2022-09-12T12:57:29;5.03;;;1.80;;
763;SDS011;5393;48.728;9.140;2022-09-12T13:03:20;2.53;;;1.53;;
763;SDS011;5393;48.728;9.140;2022-09-12T13:06:18;1.93;;;1.17;;
763;SDS011;5393;48.728;9.140;2022-09-12T13:09:07;2.87;;;1.47;;
763;SDS011;5393;48.728;9.140;2022-09-12T13:12:11;3.30;;;1.40;;
763;SDS011;5393;48.728;9.140;2022-09-12T13:15:00;3.20;;;1.70;;
763;SDS011;5393;48.728;9.140;2022-09-12T13:17:45;2.83;;;1.70;;
763;SDS011;5393;48.728;9.140;2022-09-12T13:20:31;2.60;;;1.10;;
763;SDS011;5393;48.728;9.140;2022-09-12T13:23:20;1.60;;;1.03;;
763;SDS011;5393;48.728;9.140;2022-09-12T13:26:13;2.03;;;1.27;;
763;SDS011;5393;48.728;9.140;2022-09-12T13:29:14;1.40;;;0.90;;
763;SDS011;5393;48.728;9.140;2022-09-12T13:32:00;2.40;;;1.10;;
763;SDS011;5393;48.728;9.140;2022-09-12T13:43:20;1.80;;;1.00;;
763;SDS011;5393;48.728;9.140;2022-09-12T13:46:07;1.90;;;0.97;;
763;SDS011;5393;48.728;9.140;2022-09-12T13:48:53;1.90;;;0.90;;
763;SDS011;5393;48.728;9.140;2022-09-12T13:51:38;3.77;;;1.10;;
763;SDS011;5393;48.728;9.140;2022-09-12T13:54:23;2.77;;;1.10;;
763;SDS011;5393;48.728;9.140;2022-09-12T13:57:16;1.90;;;0.77;;
763;SDS011;5393;48.728;9.140;2022-09-12T14:00:19;1.37;;;0.80;;
763;SDS011;5393;48.728;9.140;2022-09-12T14:03:13;2.40;;;0.83;;
763;SDS011;5393;48.728;9.140;2022-09-12T14:06:27;2.30;;;1.27;;
763;SDS011;5393;48.728;9.140;2022-09-12T14:09:13;2.40;;;1.73;;
763;SDS011;5393;48.728;9.140;2022-09-12T14:11:58;2.47;;;1.00;;
763;SDS011;5393;48.728;9.140;2022-09-12T14:14:45;1.10;;;0.60;;
763;SDS011;5393;48.728;9.140;2022-09-12T14:17:31;1.60;;;0.90;;
763;SDS011;5393;48.728;9.140;2022-09-12T14:20:18;1.60;;;0.97;;
763;SDS011;5393;48.728;9.140;2022-09-12T14:26:21;1.30;;;0.70;;
763;SDS011;5393;48.728;9.140;2022-09-12T14:29:11;4.17;;;1.00;;
763;SDS011;5393;48.728;9.140;2022-09-12T14:32:00;1.40;;;0.80;;
763;SDS011;5393;48.728;9.140;2022-09-12T14:37:49;2.10;;;1.90;;
763;SDS011;5393;48.728;9.140;2022-09-12T14:40:45;1.40;;;0.90;;
763;SDS011;5393;48.728;9.140;2022-09-12T14:43:32;2.47;;;1.10;;
763;SDS011;5393;48.728;9.140;2022-09-12T14:46:18;1.33;;;0.73;;
763;SDS011;5393;48.728;9.140;2022-09-12T14:49:07;1.70;;;0.80;;
763;SDS011;5393;48.728;9.140;2022-09-12T14:51:53;1.40;;;0.80;;
763;SDS011;5393;48.728;9.140;2022-09-12T14:54:39;1.27;;;0.83;;
763;SDS011;5393;48.728;9.140;2022-09-12T14:57:36;3.20;;;0.80;;
763;SDS011;5393;48.728;9.140;2022-09-12T15:00:22;1.30;;;0.83;;
763;SDS011;5393;48.728;9.140;2022-09-12T15:03:27;1.70;;;0.80;;
763;SDS011;5393;48.728;9.140;2022-09-12T15:06:45;1.30;;;0.90;;
763;SDS011;5393;48.728;9.140;2022-09-12T15:09:23;1.60;;;1.07;;
763;SDS011;5393;48.728;9.140;2022-09-12T15:12:09;1.80;;;0.90;;
763;SDS011;5393;48.728;9.140;2022-09-12T15:15:27;1.70;;;1.10;;
763;SDS011;5393;48.728;9.140;2022-09-12T15:18:05;1.50;;;1.10;;
763;SDS011;5393;48.728;9.140;2022-09-12T15:20:51;1.43;;;0.97;;
763;SDS011;5393;48.728;9.140;2022-09-12T15:23:47;1.77;;;1.00;;
763;SDS011;5393;48.728;9.140;2022-09-12T15:26:32;1.73;;;1.10;;
763;SDS011;5393;48.728;9.140;2022-09-12T15:29:16;1.57;;;1.20;;
763;SDS011;5393;48.728;9.140;2022-09-12T15:32:01;1.60;;;1.20;;
763;SDS011;5393;48.728;9.140;2022-09-12T15:34:47;2.30;;;1.10;;
763;SDS011;5393;48.728;9.140;2022-09-12T15:37:31;2.30;;;1.10;;
763;SDS011;5393;48.728;9.140;2022-09-12T15:40:16;1.40;;;1.00;;
763;SDS011;5393;48.728;9.140;2022-09-12T15:43:01;1.40;;;0.90;;
763;SDS011;5393;48.728;9.140;2022-09-12T15:45:46;1.40;;;1.00;;
763;SDS011;5393;48.728;9.140;2022-09-12T15:48:32;2.27;;;1.30;;
763;SDS011;5393;48.728;9.140;2022-09-12T15:51:17;2.07;;;1.20;;
763;SDS011;5393;48.728;9.140;2022-09-12T15:54:02;2.30;;;1.07;;
763;SDS011;5393;48.728;9.140;2022-09-12T15:56:53;2.87;;;1.27;;
763;SDS011;5393;48.728;9.140;2022-09-12T15:59:38;2.10;;;1.70;;
763;SDS011;5393;48.728;9.140;2022-09-12T16:02:22;2.20;;;1.03;;
763;SDS011;5393;48.728;9.140;2022-09-12T16:05:10;1.77;;;1.10;;
763;SDS011;5393;48.728;9.140;2022-09-12T16:07:56;1.53;;;1.07;;
763;SDS011;5393;48.728;9.140;2022-09-12T16:10:41;1.80;;;1.37;;
763;SDS011;5393;48.728;9.140;2022-09-12T16:13:26;1.80;;;1.40;;
763;SDS011;5393;48.728;9.140;2022-09-12T16:16:12;1.73;;;1.10;;
763;SDS011;5393;48.728;9.140;2022-09-12T16:18:56;1.57;;;1.37;;
763;SDS011;5393;48.728;9.140;2022-09-12T16:21:41;2.93;;;1.10;;
763;SDS011;5393;48.728;9.140;2022-09-12T16:24:26;1.60;;;1.20;;
763;SDS011;5393;48.728;9.140;2022-09-12T16:27:10;1.40;;;1.00;;
763;SDS011;5393;48.728;9.140;2022-09-12T16:29:55;1.50;;;1.10;;
763;SDS011;5393;48.728;9.140;2022-09-12T16:32:39;1.83;;;1.20;;
763;SDS011;5393;48.728;9.140;2022-09-12T16:35:24;1.33;;;1.10;;
763;SDS011;5393;48.728;9.140;2022-09-12T16:38:09;1.93;;;1.60;;
763;SDS011;5393;48.728;9.140;2022-09-12T16:41:00;1.43;;;1.10;;
763;SDS011;5393;48.728;9.140;2022-09-12T16:43:45;1.47;;;1.27;;
763;SDS011;5393;48.728;9.140;2022-09-12T16:46:30;2.83;;;1.50;;
763;SDS011;5393;48.728;9.140;2022-09-12T16:49:15;2.47;;;1.80;;
763;SDS011;5393;48.728;9.140;2022-09-12T16:52:00;2.93;;;1.80;;
763;SDS011;5393;48.728;9.140;2022-09-12T16:54:44;2.40;;;1.57;;
763;SDS011;5393;48.728;9.140;2022-09-12T16:57:29;2.43;;;1.73;;
763;SDS011;5393;48.728;9.140;2022-09-12T17:00:14;2.17;;;1.47;;
763;SDS011;5393;48.728;9.140;2022-09-12T17:02:58;2.00;;;1.40;;
763;SDS011;5393;48.728;9.140;2022-09-12T17:05:43;2.33;;;1.20;;
763;SDS011;5393;48.728;9.140;2022-09-12T17:08:28;1.63;;;1.33;;
763;SDS011;5393;48.728;9.140;2022-09-12T17:11:14;2.03;;;1.57;;
763;SDS011;5393;48.728;9.140;2022-09-12T17:13:59;2.07;;;1.53;;
763;SDS011;5393;48.728;9.140;2022-09-12T17:16:45;1.70;;;1.30;;
763;SDS011;5393;48.728;9.140;2022-09-12T17:19:30;2.23;;;1.83;;
763;SDS011;5393;48.728;9.140;2022-09-12T17:22:15;2.83;;;1.70;;
763;SDS011;5393;48.728;9.140;2022-09-12T17:25:00;1.77;;;1.23;;
763;SDS011;5393;48.728;9.140;2022-09-12T17:27:45;1.70;;;1.30;;
763;SDS011;5393;48.728;9.140;2022-09-12T17:30:32;3.00;;;1.43;;
763;SDS011;5393;48.728;9.140;2022-09-12T17:33:17;2.20;;;1.83;;
763;SDS011;5393;48.728;9.140;2022-09-12T17:36:02;2.87;;;2.40;;
763;SDS011;5393;48.728;9.140;2022-09-12T17:38:47;1.77;;;1.43;;
763;SDS011;5393;48.728;9.140;2022-09-12T17:41:31;2.13;;;1.53;;
763;SDS011;5393;48.728;9.140;2022-09-12T17:44:16;2.20;;;1.57;;
763;SDS011;5393;48.728;9.140;2022-09-12T17:47:03;2.47;;;1.50;;
763;SDS011;5393;48.728;9.140;2022-09-12T17:49:47;2.33;;;1.57;;
763;SDS011;5393;48.728;9.140;2022-09-12T17:52:33;2.77;;;2.33;;
763;SDS011;5393;48.728;9.140;2022-09-12T17:55:18;3.30;;;3.00;;
763;SDS011;5393;48.728;9.140;2022-09-12T17:58:03;4.10;;;2.23;;
763;SDS011;5393;48.728;9.140;2022-09-12T18:00:54;3.23;;;1.67;;
763;SDS011;5393;48.728;9.140;2022-09-12T18:04:02;4.70;;;1.70;;
763;SDS011;5393;48.728;9.140;2022-09-12T18:06:47;2.80;;;1.80;;
763;SDS011;5393;48.728;9.140;2022-09-12T18:09:31;2.60;;;1.70;;
763;SDS011;5393;48.728;9.140;2022-09-12T18:12:16;2.13;;;1.73;;
763;SDS011;5393;48.728;9.140;2022-09-12T18:15:02;2.30;;;1.40;;
763;SDS011;5393;48.728;9.140;2022-09-12T18:17:47;2.20;;;1.70;;
763;SDS011;5393;48.728;9.140;2022-09-12T18:20:32;2.30;;;1.80;;
763;SDS011;5393;48.728;9.140;2022-09-12T18:23:16;4.53;;;2.30;;
763;SDS011;5393;48.728;9.140;2022-09-12T18:26:02;5.07;;;2.87;;
763;SDS011;5393;48.728;9.140;2022-09-12T18:28:47;2.90;;;2.43;;
763;SDS011;5393;48.728;9.140;2022-09-12T18:31:32;2.63;;;2.10;;
763;SDS011;5393;48.728;9.140;2022-09-12T18:34:16;3.63;;;2.20;;
763;SDS011;5393;48.728;9.140;2022-09-12T18:37:01;3.70;;;2.30;;
763;SDS011;5393;48.728;9.140;2022-09-12T18:39:48;2.73;;;2.17;;
763;SDS011;5393;48.728;9.140;2022-09-12T18:42:32;2.23;;;1.67;;
763;SDS011;5393;48.728;9.140;2022-09-12T18:45:17;4.20;;;2.30;;
763;SDS011;5393;48.728;9.140;2022-09-12T18:48:02;3.70;;;2.20;;
763;SDS011;5393;48.728;9.140;2022-09-12T18:50:48;2.47;;;1.70;;
763;SDS011;5393;48.728;9.140;2022-09-12T18:53:33;3.17;;;2.30;;
763;SDS011;5393;48.728;9.140;2022-09-12T18:56:20;4.93;;;1.90;;
763;SDS011;5393;48.728;9.140;2022-09-12T18:59:05;4.33;;;1.73;;
763;SDS011;5393;48.728;9.140;2022-09-12T19:01:50;3.43;;;2.13;;
763;SDS011;5393;48.728;9.140;2022-09-12T19:04:35;2.40;;;1.90;;
763;SDS011;5393;48.728;9.140;2022-09-12T19:07:19;2.40;;;1.90;;
763;SDS011;5393;48.728;9.140;2022-09-12T19:10:07;3.17;;;2.47;;
763;SDS011;5393;48.728;9.140;2022-09-12T19:12:51;4.20;;;3.80;;
763;SDS011;5393;48.728;9.140;2022-09-12T19:15:39;2.90;;;2.27;;
763;SDS011;5393;48.728;9.140;2022-09-12T19:18:24;4.33;;;2.40;;
763;SDS011;5393;48.728;9.140;2022-09-12T19:21:16;2.47;;;2.13;;
763;SDS011;5393;48.728;9.140;2022-09-12T19:24:02;4.10;;;2.20;;
763;SDS011;5393;48.728;9.140;2022-09-12T19:26:47;2.10;;;1.90;;
763;SDS011;5393;48.728;9.140;2022-09-12T19:29:33;2.30;;;2.10;;
763;SDS011;5393;48.728;9.140;2022-09-12T19:32:17;3.17;;;2.07;;
763;SDS011;5393;48.728;9.140;2022-09-12T19:35:02;2.70;;;1.90;;
763;SDS011;5393;48.728;9.140;2022-09-12T19:37:47;3.00;;;1.83;;
763;SDS011;5393;48.728;9.140;2022-09-12T19:40:32;3.03;;;2.23;;
763;SDS011;5393;48.728;9.140;2022-09-12T19:43:17;3.47;;;2.00;;
763;SDS011;5393;48.728;9.140;2022-09-12T19:46:02;3.37;;;2.30;;
763;SDS011;5393;48.728;9.140;2022-09-12T19:48:47;2.90;;;2.30;;
763;SDS011;5393;48.728;9.140;2022-09-12T19:51:32;2.50;;;2.23;;